Time;durP1;ratioP1;P1;durP2;ratioP2;P2;SDS_P1;SDS_P2;PMS_P1;PMS_P2;Temp;Humidity;BMP_temperature;BMP_pressure;BME280_temperature;BME280_humidity;BME280_pressure;Samples;Min_cycle;Max_cycle;Signal;HPM_P1;HPM_P2
2024/01/10 00:02:18;;;;;;;163.20;52.27;;;;;;;-10.37;100.00;102690.17;4927774;57;1149267;-78
2024/01/10 00:07:23;;;;;;;189.18;58.35;;;;;;;-10.61;100.00;102690.41;4990338;57;1149370;-78
2024/01/10 00:12:34;;;;;;;167.60;58.80;;;;;;;-10.81;100.00;102678.04;4923166;57;1149433;-78
2024/01/10 00:17:36;;;;;;;205.35;65.57;;;;;;;-10.91;100.00;102670.39;4931608;57;1149471;-78
2024/01/10 00:22:42;;;;;;;263.73;91.47;;;;;;;-10.84;100.00;102660.02;4890171;57;1149186;-77
2024/01/10 00:27:47;;;;;;;294.70;92.08;;;;;;;-10.57;100.00;102661.22;4844711;57;1149162;-77
2024/01/10 00:32:53;;;;;;;213.57;72.22;;;;;;;-10.50;100.00;102657.22;4855145;57;1149200;-78
2024/01/10 00:37:59;;;;;;;235.33;74.47;;;;;;;-10.35;100.00;102666.41;4874003;57;1147249;-78
2024/01/10 00:43:05;;;;;;;222.70;72.55;;;;;;;-10.15;100.00;102674.01;4896103;57;1147243;-78
2024/01/10 00:48:10;;;;;;;245.57;76.30;;;;;;;-9.97;100.00;102667.96;4965411;58;1147384;-77
2024/01/10 00:53:16;;;;;;;232.23;75.27;;;;;;;-9.81;100.00;102673.28;4958464;58;1145029;-77
2024/01/10 00:58:22;;;;;;;230.35;74.97;;;;;;;-9.76;100.00;102676.00;4917106;57;1145016;-77
2024/01/10 01:03:27;;;;;;;281.07;79.03;;;;;;;-9.83;100.00;102685.55;4939214;57;1145402;-77
2024/01/10 01:08:33;;;;;;;267.73;80.30;;;;;;;-9.95;100.00;102674.42;4955721;57;1147268;-77
2024/01/10 01:13:38;;;;;;;303.63;85.90;;;;;;;-10.05;100.00;102680.83;4940693;57;1147199;-77
2024/01/10 01:18:45;;;;;;;410.33;118.83;;;;;;;-10.14;100.00;102681.75;4972564;56;1149382;-78
2024/01/10 01:23:50;;;;;;;362.08;123.67;;;;;;;-10.13;100.00;102691.17;4853398;58;1151457;-77
2024/01/10 01:28:56;;;;;;;355.00;113.20;;;;;;;-10.17;100.00;102691.85;4858853;58;1151195;-78
2024/01/10 01:34:02;;;;;;;300.93;92.50;;;;;;;-10.19;100.00;102683.67;4846268;57;1150906;-78
2024/01/10 01:39:07;;;;;;;234.90;78.20;;;;;;;-10.43;100.00;102683.13;4854059;57;1149351;-78
2024/01/10 01:44:17;;;;;;;200.47;69.97;;;;;;;-10.61;100.00;102683.63;4972202;57;1149418;-78
2024/01/10 01:49:25;;;;;;;209.13;70.53;;;;;;;-10.71;100.00;102661.91;5004919;56;1149496;-78
2024/01/10 01:54:33;;;;;;;201.30;66.63;;;;;;;-10.75;100.00;102654.91;5069446;56;1149523;-77
2024/01/10 01:59:38;;;;;;;204.43;66.17;;;;;;;-10.80;100.00;102656.79;5021598;56;1149345;-77
2024/01/10 02:04:45;;;;;;;194.83;62.90;;;;;;;-10.79;100.00;102651.75;4974571;57;1149159;-77
2024/01/10 02:09:51;;;;;;;180.87;56.27;;;;;;;-10.65;100.00;102637.00;4987880;57;1149221;-77
2024/01/10 02:14:57;;;;;;;166.30;58.98;;;;;;;-10.58;100.00;102630.47;4978133;57;1149309;-78
2024/01/10 02:20:21;;;;;;;199.77;65.93;;;;;;;-10.59;100.00;102628.72;4952386;57;1149425;-77
2024/01/10 02:25:22;;;;;;;181.30;62.70;;;;;;;-10.62;100.00;102631.14;4883473;57;1149168;-78
2024/01/10 02:30:28;;;;;;;183.87;61.57;;;;;;;-10.56;100.00;102634.84;4671583;60;1149406;-78
2024/01/10 02:35:33;;;;;;;200.93;59.87;;;;;;;-10.50;100.00;102644.44;4872481;57;1149202;-78
2024/01/10 02:40:39;;;;;;;195.47;61.35;;;;;;;-10.47;100.00;102636.50;4949446;57;1149489;-78
2024/01/10 02:45:45;;;;;;;204.85;60.70;;;;;;;-10.51;100.00;102633.73;4952316;57;1149457;-79
2024/01/10 02:50:50;;;;;;;193.93;61.77;;;;;;;-10.61;100.00;102624.82;4936564;57;1147367;-77
2024/01/10 02:55:56;;;;;;;192.87;58.90;;;;;;;-10.55;100.00;102626.37;4997894;56;1149255;-77
2024/01/10 03:01:01;;;;;;;185.47;60.10;;;;;;;-10.53;100.00;102613.62;4962018;55;1147292;-78
2024/01/10 03:06:07;;;;;;;198.47;61.37;;;;;;;-10.48;100.00;102622.36;4924326;56;1147174;-78
2024/01/10 03:11:13;;;;;;;174.30;57.80;;;;;;;-10.54;100.00;102617.02;4932214;57;1147052;-77
2024/01/10 03:16:18;;;;;;;177.93;58.63;;;;;;;-10.45;100.00;102617.38;4936904;57;1147081;-77
2024/01/10 03:21:26;;;;;;;183.50;55.63;;;;;;;-10.37;100.00;102625.83;4923701;56;1146948;-78
2024/01/10 03:26:31;;;;;;;198.33;61.10;;;;;;;-10.30;100.00;102629.52;4997663;57;1147080;-78
2024/01/10 03:31:37;;;;;;;175.38;56.25;;;;;;;-10.22;100.00;102627.26;4963751;56;1147233;-78
2024/01/10 03:36:43;;;;;;;176.10;56.40;;;;;;;-10.17;100.00;102624.05;4968672;57;1147261;-78
2024/01/10 03:41:48;;;;;;;164.20;54.55;;;;;;;-10.13;100.00;102616.10;5001746;57;1147062;-77
2024/01/10 03:46:54;;;;;;;165.37;54.30;;;;;;;-10.40;100.00;102610.78;5003687;56;1147287;-76
2024/01/10 03:52:00;;;;;;;174.85;55.88;;;;;;;-10.60;100.00;102595.89;4967608;57;1149138;-80
2024/01/10 03:57:06;;;;;;;163.07;57.57;;;;;;;-10.56;100.00;102599.05;4970594;56;1149244;-71
2024/01/10 04:02:11;;;;;;;164.20;54.23;;;;;;;-10.51;100.00;102594.98;4880515;57;1149419;-72
2024/01/10 04:07:17;;;;;;;154.27;55.17;;;;;;;-10.51;100.00;102592.83;4949035;57;1149341;-72
2024/01/10 04:12:23;;;;;;;178.53;59.53;;;;;;;-10.44;100.00;102582.93;5002827;56;1149112;-70
2024/01/10 04:17:28;;;;;;;189.77;56.97;;;;;;;-10.37;100.00;102578.91;4932833;56;1149265;-71
2024/01/10 04:22:34;;;;;;;176.93;58.27;;;;;;;-10.31;100.00;102582.61;4963854;55;1149206;-72
2024/01/10 04:27:40;;;;;;;163.07;53.87;;;;;;;-10.21;100.00;102572.73;4997227;55;1147098;-71
2024/01/10 04:32:45;;;;;;;166.60;54.37;;;;;;;-10.20;100.00;102569.36;4861309;58;1149322;-74
2024/01/10 04:37:51;;;;;;;162.80;55.70;;;;;;;-10.25;100.00;102578.56;4862739;57;1149449;-74
2024/01/10 04:42:56;;;;;;;164.03;52.93;;;;;;;-10.23;100.00;102575.66;4896210;56;1149311;-75
2024/01/10 04:48:02;;;;;;;167.53;57.43;;;;;;;-10.25;100.00;102580.71;4988263;56;1149305;-74
2024/01/10 04:53:08;;;;;;;151.33;50.90;;;;;;;-10.23;100.00;102577.78;4948611;57;1149257;-74
2024/01/10 04:58:13;;;;;;;139.23;46.90;;;;;;;-10.17;100.00;102579.69;4939323;56;1149400;-75
2024/01/10 05:03:19;;;;;;;146.93;47.23;;;;;;;-10.24;100.00;102579.91;4943141;57;1149320;-75
2024/01/10 05:08:26;;;;;;;182.63;55.60;;;;;;;-10.23;100.00;102573.10;4940984;57;1149369;-75
2024/01/10 05:13:31;;;;;;;160.43;56.80;;;;;;;-10.22;100.00;102572.26;4939985;57;1149004;-73
2024/01/10 05:18:37;;;;;;;156.47;53.20;;;;;;;-10.21;100.00;102571.05;4940960;57;1149434;-74
2024/01/10 05:23:42;;;;;;;165.10;55.30;;;;;;;-10.15;100.00;102575.10;4996751;56;1149125;-74
2024/01/10 05:28:48;;;;;;;165.80;55.40;;;;;;;-10.01;100.00;102571.80;4984715;55;1147467;-74
2024/01/10 05:33:53;;;;;;;152.62;56.13;;;;;;;-9.90;100.00;102565.80;5002094;55;1146964;-74
2024/01/10 05:38:59;;;;;;;175.57;58.77;;;;;;;-9.87;100.00;102553.13;4996538;54;1145019;-74
2024/01/10 05:44:05;;;;;;;160.13;49.87;;;;;;;-9.83;100.00;102553.72;4946821;55;1144863;-74
2024/01/10 05:49:11;;;;;;;107.87;35.60;;;;;;;-9.81;100.00;102549.13;4942271;56;1146971;-74
2024/01/10 05:54:18;;;;;;;126.83;40.60;;;;;;;-9.80;100.00;102536.80;4953466;57;1147088;-74
2024/01/10 05:59:23;;;;;;;128.67;44.53;;;;;;;-9.85;100.00;102539.98;4932048;56;1147077;-75
2024/01/10 06:04:31;;;;;;;152.73;50.10;;;;;;;-9.87;100.00;102536.49;4911884;57;1147089;-73
2024/01/10 06:09:36;;;;;;;162.03;52.00;;;;;;;-9.88;100.00;102540.73;4995374;56;1147073;-74
2024/01/10 06:14:42;;;;;;;148.07;47.53;;;;;;;-9.88;100.00;102536.03;4977855;56;1146963;-74
2024/01/10 06:19:47;;;;;;;158.57;57.30;;;;;;;-9.87;100.00;102532.25;4960715;56;1147584;-74
2024/01/10 06:24:53;;;;;;;167.20;61.03;;;;;;;-9.85;100.00;102530.63;4893304;56;1147134;-74
2024/01/10 06:29:58;;;;;;;167.03;57.40;;;;;;;-9.80;100.00;102535.92;4939844;56;1147215;-74
2024/01/10 06:35:04;;;;;;;176.30;60.80;;;;;;;-9.73;100.00;102536.59;4966083;55;1147017;-74
2024/01/10 06:40:11;;;;;;;161.70;60.33;;;;;;;-9.63;100.00;102537.02;4930071;56;1147037;-74
2024/01/10 06:45:17;;;;;;;172.87;61.57;;;;;;;-9.46;100.00;102540.57;4969441;57;1144821;-74
2024/01/10 06:50:23;;;;;;;160.73;55.93;;;;;;;-9.35;100.00;102545.29;4959837;56;1144737;-75
2024/01/10 06:55:29;;;;;;;169.27;58.00;;;;;;;-9.28;100.00;102536.11;4947250;56;1145193;-74
2024/01/10 07:00:34;;;;;;;169.07;60.13;;;;;;;-9.23;100.00;102537.16;4960003;56;1145272;-77
2024/01/10 07:05:43;;;;;;;187.95;65.57;;;;;;;-9.18;100.00;102530.92;5043265;55;1145492;-76
2024/01/10 07:10:48;;;;;;;174.00;63.30;;;;;;;-9.15;100.00;102525.47;5052427;55;1145871;-74
2024/01/10 07:15:54;;;;;;;279.10;92.80;;;;;;;-9.03;100.00;102535.30;5057109;55;1145325;-75
2024/01/10 07:21:00;;;;;;;218.47;67.37;;;;;;;-8.90;100.00;102528.07;5010941;56;1145361;-73
2024/01/10 07:26:05;;;;;;;200.68;68.00;;;;;;;-8.77;100.00;102531.91;4981212;58;1144757;-74
2024/01/10 07:31:12;;;;;;;186.43;65.33;;;;;;;-8.72;100.00;102527.81;4880987;58;1144652;-74
2024/01/10 07:36:18;;;;;;;204.32;70.05;;;;;;;-8.63;100.00;102540.06;4993211;57;1145127;-75
2024/01/10 07:41:24;;;;;;;198.73;67.20;;;;;;;-8.56;100.00;102539.45;5097902;57;1144736;-75
2024/01/10 07:46:29;;;;;;;213.53;72.67;;;;;;;-8.51;100.00;102549.43;5079531;57;1145058;-75
2024/01/10 07:51:35;;;;;;;190.50;67.90;;;;;;;-8.49;100.00;102553.33;5030353;55;1145280;-76
2024/01/10 07:56:41;;;;;;;191.20;68.60;;;;;;;-8.50;100.00;102545.17;4929352;59;1144762;-74
2024/01/10 08:01:59;;;;;;;204.20;68.90;;;;;;;-8.44;100.00;102543.69;4984523;58;1144719;-74
2024/01/10 08:07:05;;;;;;;224.15;81.40;;;;;;;-8.37;100.00;102535.77;4976966;58;1145258;-74
2024/01/10 08:12:11;;;;;;;198.90;69.83;;;;;;;-8.38;100.00;102536.58;4989680;58;1145123;-76
2024/01/10 08:17:17;;;;;;;190.57;68.43;;;;;;;-8.34;100.00;102542.28;4926965;58;1145239;-75
2024/01/10 08:22:23;;;;;;;326.53;102.53;;;;;;;-8.31;100.00;102546.20;4874616;58;1145206;-75
2024/01/10 08:27:28;;;;;;;457.63;166.37;;;;;;;-8.24;100.00;102544.27;4997161;57;1146813;-76
2024/01/10 08:32:35;;;;;;;447.70;124.77;;;;;;;-8.16;100.00;102546.27;4980154;55;1147388;-74
2024/01/10 08:37:44;;;;;;;420.73;112.22;;;;;;;-8.05;100.00;102551.72;4951491;56;1147103;-75
2024/01/10 08:42:50;;;;;;;582.33;159.72;;;;;;;-7.94;100.00;102554.20;4945150;56;1147871;-75
2024/01/10 08:47:57;;;;;;;222.33;70.27;;;;;;;-7.83;100.00;102549.41;4949329;55;1147194;-75
2024/01/10 08:53:05;;;;;;;261.60;83.17;;;;;;;-7.74;100.00;102544.94;4997339;56;1145222;-74
2024/01/10 08:58:10;;;;;;;259.67;79.13;;;;;;;-7.65;100.00;102551.66;5037630;55;1145177;-75
2024/01/10 09:03:16;;;;;;;153.83;47.80;;;;;;;-7.49;100.00;102561.55;5004251;55;1145087;-74
2024/01/10 09:08:23;;;;;;;148.36;53.10;;;;;;;-7.32;100.00;102553.88;5006864;56;1144930;-76
2024/01/10 09:13:29;;;;;;;179.43;63.27;;;;;;;-7.17;100.00;102559.84;4973944;57;1144782;-74
2024/01/10 09:18:34;;;;;;;110.03;34.10;;;;;;;-7.06;100.00;102558.47;4961585;55;1145872;-73
2024/01/10 09:23:40;;;;;;;91.83;29.17;;;;;;;-6.99;100.00;102553.92;4966669;56;1145108;-75
2024/01/10 09:28:46;;;;;;;96.80;32.77;;;;;;;-6.95;100.00;102557.05;4951208;57;1142856;-76
2024/01/10 09:33:51;;;;;;;100.67;36.37;;;;;;;-6.89;100.00;102546.05;4917643;57;1143142;-73
2024/01/10 09:38:57;;;;;;;102.03;31.53;;;;;;;-6.79;100.00;102533.46;4912074;57;1145133;-75
2024/01/10 09:44:02;;;;;;;75.72;26.62;;;;;;;-6.69;100.00;102533.27;4922159;57;1145058;-74
2024/01/10 09:49:09;;;;;;;69.47;25.87;;;;;;;-6.58;100.00;102543.84;4927009;57;1142927;-76
2024/01/10 09:54:17;;;;;;;69.93;22.63;;;;;;;-6.51;100.00;102540.16;4969548;57;1142839;-74
2024/01/10 09:59:22;;;;;;;53.70;18.47;;;;;;;-6.45;100.00;102538.16;4987962;57;1142786;-74
2024/01/10 10:04:30;;;;;;;44.60;17.20;;;;;;;-6.45;100.00;102536.46;4954445;57;1142909;-73
2024/01/10 10:09:36;;;;;;;38.30;14.93;;;;;;;-6.42;100.00;102526.66;4969104;57;1143204;-75
2024/01/10 10:14:41;;;;;;;31.40;12.85;;;;;;;-6.42;100.00;102526.66;4924967;57;1143017;-75
2024/01/10 10:19:47;;;;;;;33.07;11.10;;;;;;;-6.37;100.00;102530.61;4919048;56;1143144;-75
2024/01/10 10:24:53;;;;;;;41.10;14.67;;;;;;;-6.34;100.00;102531.56;4971523;56;1142700;-76
2024/01/10 10:29:58;;;;;;;45.67;18.12;;;;;;;-6.34;100.00;102526.83;4986909;56;1142733;-76
2024/01/10 10:35:05;;;;;;;106.70;28.17;;;;;;;-6.30;100.00;102521.80;4971543;57;1142660;-74
2024/01/10 10:40:11;;;;;;;82.60;18.57;;;;;;;-6.19;100.00;102516.88;4931641;57;1145177;-76
2024/01/10 10:45:25;;;;;;;51.60;17.60;;;;;;;-6.06;100.00;102518.48;4960096;57;1142736;-74
2024/01/10 10:50:36;;;;;;;49.77;19.60;;;;;;;-6.09;100.00;102514.54;4980317;57;1142832;-75
2024/01/10 10:55:43;;;;;;;56.33;18.20;;;;;;;-6.01;100.00;102509.99;4982613;56;1142888;-74
2024/01/10 11:00:50;;;;;;;68.93;24.77;;;;;;;-5.80;100.00;102509.11;4978601;57;1143078;-75
2024/01/10 11:05:57;;;;;;;55.87;21.97;;;;;;;-5.64;100.00;102491.84;4951532;57;1143076;-76
2024/01/10 11:11:06;;;;;;;54.55;20.72;;;;;;;-5.43;100.00;102492.28;4969038;57;1143252;-73
2024/01/10 11:16:42;;;;;;;58.27;21.40;;;;;;;-5.23;100.00;102487.51;4976531;57;1143052;-75
2024/01/10 11:22:12;;;;;;;81.40;24.47;;;;;;;-5.10;100.00;102491.17;4952498;56;1143150;-76
2024/01/10 11:27:17;;;;;;;51.43;18.60;;;;;;;-5.11;100.00;102476.12;4905542;56;1143165;-75
2024/01/10 11:32:24;;;;;;;68.43;25.33;;;;;;;-5.16;100.00;102466.55;4983480;56;1143357;-73
2024/01/10 11:37:46;;;;;;;69.37;25.17;;;;;;;-5.19;100.00;102467.36;4990878;56;1143130;-76
2024/01/10 11:42:53;;;;;;;76.87;28.57;;;;;;;-5.13;100.00;102465.31;4949260;56;1142859;-76
2024/01/10 11:48:00;;;;;;;75.47;27.15;;;;;;;-5.05;100.00;102460.77;4967527;56;1143003;-74
2024/01/10 11:53:06;;;;;;;72.17;27.40;;;;;;;-4.90;100.00;102454.13;4973312;57;1142753;-73
2024/01/10 11:58:12;;;;;;;82.43;28.10;;;;;;;-4.67;100.00;102440.73;4933590;57;1143205;-75
2024/01/10 12:03:19;;;;;;;90.27;30.80;;;;;;;-4.53;100.00;102430.61;4917542;56;1143648;-75
2024/01/10 12:08:24;;;;;;;91.27;32.70;;;;;;;-4.08;100.00;102428.21;4975539;56;1142919;-76
2024/01/10 12:13:32;;;;;;;59.37;23.83;;;;;;;-3.44;100.00;102425.95;4966870;57;1142784;-76
2024/01/10 12:18:37;;;;;;;64.20;23.38;;;;;;;-2.97;100.00;102425.12;4961281;56;1142790;-75
2024/01/10 12:23:43;;;;;;;64.43;24.90;;;;;;;-2.72;100.00;102420.98;5045123;55;1143429;-74
2024/01/10 12:29:00;;;;;;;60.47;24.67;;;;;;;-2.46;100.00;102424.20;4983756;56;1142920;-75
2024/01/10 12:34:14;;;;;;;72.23;25.27;;;;;;;-2.33;100.00;102426.01;4862816;59;1142962;-75
2024/01/10 12:39:15;;;;;;;58.37;24.43;;;;;;;-2.14;100.00;102413.59;4866526;57;1143022;-74
2024/01/10 12:44:21;;;;;;;65.80;24.20;;;;;;;-1.89;100.00;102399.00;4861353;59;1142718;-76
2024/01/10 12:49:27;;;;;;;59.35;25.90;;;;;;;-1.72;100.00;102397.33;4804717;59;1143485;-77
2024/01/10 12:54:33;;;;;;;66.10;27.95;;;;;;;-1.43;100.00;102396.10;4844557;58;1143108;-74
2024/01/10 12:59:38;;;;;;;57.03;23.45;;;;;;;-1.16;100.00;102389.64;4854069;59;1143248;-74
2024/01/10 13:04:44;;;;;;;50.75;21.95;;;;;;;-0.96;100.00;102387.05;4936726;57;1142976;-76
2024/01/10 13:09:52;;;;;;;58.07;23.53;;;;;;;-0.84;100.00;102378.38;4947908;57;1142887;-75
2024/01/10 13:14:57;;;;;;;55.60;24.30;;;;;;;-0.75;100.00;102373.16;4933379;57;1143308;-75
2024/01/10 13:20:03;;;;;;;58.50;23.83;;;;;;;-0.71;100.00;102369.27;4941870;57;1142997;-74
2024/01/10 13:25:09;;;;;;;51.95;21.87;;;;;;;-0.50;100.00;102355.37;4935559;56;1142921;-75
2024/01/10 13:30:14;;;;;;;54.90;25.77;;;;;;;-0.50;100.00;102355.37;4927333;57;1142888;-76
2024/01/10 13:35:20;;;;;;;58.37;26.03;;;;;;;-0.55;100.00;102358.41;4962615;57;1142896;-74
2024/01/10 13:40:26;;;;;;;58.70;24.93;;;;;;;-0.84;100.00;102357.17;4906808;58;1143088;-74
2024/01/10 13:45:32;;;;;;;58.93;24.97;;;;;;;-1.34;100.00;102351.98;4908446;58;1143184;-76
2024/01/10 13:50:38;;;;;;;59.83;26.07;;;;;;;-1.39;100.00;102355.45;4949485;58;1143010;-76
2024/01/10 13:55:43;;;;;;;75.23;27.80;;;;;;;-2.00;100.00;102360.51;4945470;58;1143111;-76
2024/01/10 14:00:49;;;;;;;65.20;26.07;;;;;;;-2.49;100.00;102369.34;4910338;58;1143007;-74
2024/01/10 14:05:55;;;;;;;65.00;26.97;;;;;;;-2.79;100.00;102366.14;4924338;57;1142964;-76
2024/01/10 14:11:00;;;;;;;74.67;28.67;;;;;;;-2.74;100.00;102363.13;4936144;58;1143161;-75
2024/01/10 14:16:06;;;;;;;128.20;44.53;;;;;;;-2.88;100.00;102369.52;4916217;58;1142951;-74
2024/01/10 14:21:12;;;;;;;81.00;32.00;;;;;;;-2.92;100.00;102366.49;4980330;57;1144747;-74
2024/01/10 14:26:17;;;;;;;84.83;33.33;;;;;;;-2.99;100.00;102365.13;4973098;57;1142610;-77
2024/01/10 14:31:24;;;;;;;169.33;109.80;;;;;;;-3.17;100.00;102364.55;4958107;57;1143236;-74
2024/01/10 14:36:29;;;;;;;104.90;40.30;;;;;;;-3.25;100.00;102359.33;4959110;57;1146809;-75
2024/01/10 14:41:35;;;;;;;155.13;48.83;;;;;;;-3.46;100.00;102360.41;5014034;58;1145425;-74
2024/01/10 14:46:41;;;;;;;131.77;47.80;;;;;;;-3.68;100.00;102354.61;5063438;56;1145350;-75
2024/01/10 14:51:47;;;;;;;145.07;51.28;;;;;;;-3.83;100.00;102354.45;5007787;56;1145606;-76
2024/01/10 14:56:53;;;;;;;129.20;47.90;;;;;;;-4.01;100.00;102353.81;4967084;56;1145495;-77
2024/01/10 15:01:58;;;;;;;135.23;49.07;;;;;;;-4.18;100.00;102350.16;4925483;57;1145208;-74
2024/01/10 15:07:04;;;;;;;110.13;39.90;;;;;;;-4.26;100.00;102347.05;4939847;57;1145114;-74
2024/01/10 15:12:10;;;;;;;120.37;44.13;;;;;;;-4.33;100.00;102344.38;4933548;56;1144980;-72
2024/01/10 15:17:15;;;;;;;101.17;38.27;;;;;;;-4.43;100.00;102343.83;4950066;57;1145217;-76
2024/01/10 15:22:21;;;;;;;103.97;41.77;;;;;;;-4.51;100.00;102338.97;4937265;57;1145463;-69
2024/01/10 15:27:28;;;;;;;114.00;44.57;;;;;;;-4.65;100.00;102344.82;4956165;57;1144835;-68
2024/01/10 15:32:33;;;;;;;108.00;39.80;;;;;;;-4.77;100.00;102328.30;4939218;57;1145519;-68
2024/01/10 15:37:39;;;;;;;116.23;36.27;;;;;;;-4.84;100.00;102327.75;4946971;57;1154445;-70
2024/01/10 15:42:45;;;;;;;185.83;56.37;;;;;;;-4.91;100.00;102325.52;4945494;57;1145472;-68
2024/01/10 15:47:50;;;;;;;125.00;43.13;;;;;;;-5.01;100.00;102322.34;4948686;57;1145386;-69
2024/01/10 15:52:56;;;;;;;128.70;46.60;;;;;;;-5.09;100.00;102313.22;4957434;57;1145495;-71
2024/01/10 15:58:02;;;;;;;137.20;49.45;;;;;;;-5.14;100.00;102312.69;4944421;57;1144937;-68
2024/01/10 16:03:08;;;;;;;145.27;48.53;;;;;;;-5.17;100.00;102301.03;4934679;57;1145069;-71
2024/01/10 16:08:13;;;;;;;128.20;44.60;;;;;;;-5.15;100.00;102293.77;4953855;58;1144748;-69
2024/01/10 16:13:19;;;;;;;134.60;47.27;;;;;;;-5.20;100.00;102291.98;4941923;57;1145497;-69
2024/01/10 16:18:25;;;;;;;197.55;68.52;;;;;;;-5.25;100.00;102281.58;4979173;56;1145290;-69
2024/01/10 16:23:31;;;;;;;188.30;61.53;;;;;;;-5.18;100.00;102287.69;4932024;57;1145298;-68
2024/01/10 16:28:36;;;;;;;206.13;73.52;;;;;;;-5.14;100.00;102274.00;4888249;57;1144980;-69
2024/01/10 16:33:42;;;;;;;200.33;70.53;;;;;;;-5.29;100.00;102278.50;5027562;57;1145026;-71
2024/01/10 16:38:47;;;;;;;170.50;62.77;;;;;;;-5.45;100.00;102280.39;4921120;57;1144887;-76
2024/01/10 16:43:53;;;;;;;188.73;65.80;;;;;;;-5.52;100.00;102284.60;4916013;57;1145113;-76
2024/01/10 16:48:59;;;;;;;234.80;72.57;;;;;;;-5.50;100.00;102280.31;4946271;57;1145331;-79
2024/01/10 16:54:07;;;;;;;160.67;55.63;;;;;;;-5.61;100.00;102277.98;4990629;56;1145262;-78
2024/01/10 16:59:12;;;;;;;188.77;64.97;;;;;;;-5.59;100.00;102277.59;4889764;58;1145138;-78
2024/01/10 17:04:18;;;;;;;141.63;56.33;;;;;;;-5.43;100.00;102282.58;4903129;57;1145229;-78
2024/01/10 17:09:23;;;;;;;207.13;65.37;;;;;;;-5.29;100.00;102272.06;4974272;56;1144956;-78
2024/01/10 17:14:29;;;;;;;342.97;94.50;;;;;;;-5.37;100.00;102269.38;4905148;57;1144978;-78
2024/01/10 17:19:34;;;;;;;371.33;94.60;;;;;;;-5.28;100.00;102272.50;4967655;57;1145286;-76
2024/01/10 17:24:40;;;;;;;240.77;73.57;;;;;;;-5.36;100.00;102265.95;5026500;56;1145101;-75
2024/01/10 17:29:46;;;;;;;214.00;79.30;;;;;;;-5.62;100.00;102259.50;4973879;57;1145774;-78
2024/01/10 17:34:51;;;;;;;173.33;63.40;;;;;;;-5.85;100.00;102238.94;4927326;57;1145027;-78
2024/01/10 17:39:57;;;;;;;212.65;67.82;;;;;;;-6.01;100.00;102233.11;4959188;56;1145028;-78
2024/01/10 17:45:02;;;;;;;269.80;88.77;;;;;;;-6.17;100.00;102228.97;4922347;57;1144943;-77
2024/01/10 17:50:09;;;;;;;214.03;65.47;;;;;;;-6.27;100.00;102230.94;4904790;57;1144706;-78
2024/01/10 17:55:15;;;;;;;234.03;77.63;;;;;;;-6.31;100.00;102227.85;4944615;57;1145158;-77
2024/01/10 18:00:23;;;;;;;284.80;99.23;;;;;;;-6.41;100.00;102220.36;4978952;57;1144798;-79
2024/01/10 18:05:28;;;;;;;240.60;75.67;;;;;;;-6.54;100.00;102214.53;4924234;57;1145372;-78
2024/01/10 18:10:35;;;;;;;133.87;49.20;;;;;;;-6.66;100.00;102209.57;4953776;57;1144824;-80
2024/01/10 18:15:42;;;;;;;237.95;74.77;;;;;;;-6.71;100.00;102221.46;4987230;56;1144959;-78
2024/01/10 18:20:47;;;;;;;423.63;119.80;;;;;;;-6.61;100.00;102235.85;4962894;57;1144900;-78
2024/01/10 18:25:53;;;;;;;203.25;67.30;;;;;;;-6.47;100.00;102221.55;4974284;56;1147044;-77
2024/01/10 18:30:58;;;;;;;238.18;80.80;;;;;;;-6.55;100.00;102226.08;4964230;57;1145120;-77
2024/01/10 18:36:06;;;;;;;233.40;85.57;;;;;;;-6.65;100.00;102217.74;5014268;56;1144991;-77
2024/01/10 18:41:11;;;;;;;467.90;145.03;;;;;;;-6.61;100.00;102231.99;4993668;57;1145043;-77
2024/01/10 18:46:17;;;;;;;231.50;79.40;;;;;;;-6.64;100.00;102237.07;4956099;56;1147313;-77
2024/01/10 18:51:23;;;;;;;229.67;81.53;;;;;;;-6.70;100.00;102224.48;4938752;57;1145152;-76
2024/01/10 18:56:28;;;;;;;229.57;77.97;;;;;;;-6.71;100.00;102239.05;4957253;55;1145088;-78
2024/01/10 19:01:34;;;;;;;232.53;77.27;;;;;;;-6.62;100.00;102234.11;4960651;57;1145035;-78
2024/01/10 19:06:40;;;;;;;266.63;83.83;;;;;;;-6.68;100.00;102228.83;4973965;57;1145298;-79
2024/01/10 19:11:46;;;;;;;332.40;111.22;;;;;;;-6.67;100.00;102217.70;4952865;57;1145472;-78
2024/01/10 19:16:51;;;;;;;236.45;75.57;;;;;;;-6.53;100.00;102220.13;4901881;55;1147018;-78
2024/01/10 19:22:02;;;;;;;260.53;82.33;;;;;;;-6.70;100.00;102207.77;4987249;56;1144993;-78
2024/01/10 19:27:05;;;;;;;248.27;78.33;;;;;;;-6.95;100.00;102202.55;4911513;57;1145302;-78
2024/01/10 19:32:10;;;;;;;238.90;80.43;;;;;;;-7.09;100.00;102209.98;4981877;55;1145402;-78
2024/01/10 19:37:22;;;;;;;214.20;75.90;;;;;;;-7.19;100.00;102211.50;4932546;56;1145114;-78
2024/01/10 19:42:29;;;;;;;221.97;71.30;;;;;;;-7.23;100.00;102205.83;4884728;56;1144994;-80
2024/01/10 19:47:35;;;;;;;212.10;68.57;;;;;;;-7.29;100.00;102199.26;4909438;57;1147522;-78
2024/01/10 19:52:41;;;;;;;213.57;76.30;;;;;;;-7.36;100.00;102199.97;4962048;57;1146845;-79
2024/01/10 19:57:46;;;;;;;172.68;64.97;;;;;;;-7.43;100.00;102194.64;4955001;57;1147317;-78
2024/01/10 20:02:52;;;;;;;171.47;59.80;;;;;;;-7.42;100.00;102195.97;4966451;56;1147105;-75
2024/01/10 20:07:58;;;;;;;180.10;64.37;;;;;;;-7.38;100.00;102203.34;4960936;57;1145152;-76
2024/01/10 20:13:06;;;;;;;184.63;73.40;;;;;;;-7.44;100.00;102188.64;4915102;57;1145199;-77
2024/01/10 20:18:14;;;;;;;165.50;59.33;;;;;;;-7.41;100.00;102194.27;4996607;56;1145270;-77
2024/01/10 20:23:21;;;;;;;179.20;66.97;;;;;;;-7.31;100.00;102190.64;4987962;56;1144741;-78
2024/01/10 20:28:31;;;;;;;173.37;65.30;;;;;;;-7.30;100.00;102200.09;4963980;56;1144679;-77
2024/01/10 20:33:36;;;;;;;162.30;61.20;;;;;;;-7.22;100.00;102198.98;5024860;56;1144957;-77
2024/01/10 20:38:42;;;;;;;317.23;103.50;;;;;;;-7.27;100.00;102180.02;4977947;56;1144737;-78
2024/01/10 20:43:48;;;;;;;273.77;91.97;;;;;;;-7.35;100.00;102183.72;4991555;56;1147295;-77
2024/01/10 20:48:54;;;;;;;261.47;88.67;;;;;;;-7.39;100.00;102187.05;4989626;56;1145508;-69
2024/01/10 20:54:00;;;;;;;156.00;55.90;;;;;;;-7.25;100.00;102197.62;4985289;56;1144845;-74
2024/01/10 20:59:05;;;;;;;157.07;54.60;;;;;;;-7.16;100.00;102190.97;4962591;55;1144802;-75
2024/01/10 21:04:11;;;;;;;127.38;45.05;;;;;;;-7.22;100.00;102185.72;4999576;56;1145889;-73
2024/01/10 21:09:16;;;;;;;83.03;30.17;;;;;;;-7.30;100.00;102167.09;4984452;56;1145026;-76
2024/01/10 21:14:22;;;;;;;87.43;28.83;;;;;;;-7.33;100.00;102164.48;5009285;56;1142784;-77
2024/01/10 21:19:28;;;;;;;88.10;32.20;;;;;;;-7.36;100.00;102161.84;4993404;56;1143026;-77
2024/01/10 21:24:33;;;;;;;70.20;23.87;;;;;;;-7.36;100.00;102149.86;4996938;56;1142591;-75
2024/01/10 21:29:39;;;;;;;68.05;23.45;;;;;;;-7.38;100.00;102136.52;5000523;56;1145381;-75
2024/01/10 21:34:45;;;;;;;71.67;27.20;;;;;;;-7.37;100.00;102125.41;4948205;56;1145313;-75
2024/01/10 21:39:50;;;;;;;61.75;21.75;;;;;;;-7.33;100.00;102124.65;4980747;56;1145203;-75
2024/01/10 21:44:56;;;;;;;67.08;23.52;;;;;;;-7.30;100.00;102119.55;4936762;56;1144899;-73
2024/01/10 21:50:02;;;;;;;69.30;24.27;;;;;;;-7.32;100.00;102116.94;4942625;56;1144906;-77
2024/01/10 21:55:08;;;;;;;70.00;23.83;;;;;;;-7.31;100.00;102131.53;4951969;57;1145017;-75
2024/01/10 22:00:14;;;;;;;56.70;18.83;;;;;;;-7.32;100.00;102124.65;4963529;56;1145030;-78
2024/01/10 22:05:20;;;;;;;104.20;39.87;;;;;;;-7.40;100.00;102141.63;4982520;56;1145007;-77
2024/01/10 22:10:25;;;;;;;144.87;53.00;;;;;;;-7.47;100.00;102159.02;5040373;56;1147039;-76